createdAt,value
2023-03-08T00:01:14.683Z,35.78
2023-03-08T00:03:43.245Z,33.63
2023-03-08T00:06:14.509Z,36.13
2023-03-08T00:08:43.362Z,35.70
2023-03-08T00:11:13.511Z,35.45
2023-03-08T00:13:42.575Z,36.33
2023-03-08T00:16:14.827Z,36.42
2023-03-08T00:18:43.427Z,35.95
2023-03-08T00:21:13.694Z,36.80
2023-03-08T00:23:43.079Z,39.65
2023-03-08T00:26:11.979Z,38.53
2023-03-08T00:28:40.564Z,38.42
2023-03-08T00:31:11.834Z,36.53
2023-03-08T00:33:42.248Z,38.80
2023-03-08T00:36:16.070Z,38.85
2023-03-08T00:38:45.006Z,37.63
2023-03-08T00:41:13.514Z,40.38
2023-03-08T00:43:42.578Z,37.95
2023-03-08T00:46:11.969Z,36.47
2023-03-08T00:48:42.273Z,36.85
2023-03-08T00:51:13.368Z,35.53
2023-03-08T00:53:41.598Z,36.08
2023-03-08T00:56:09.828Z,35.28
2023-03-08T00:58:39.797Z,37.03
2023-03-08T01:01:09.327Z,38.25
2023-03-08T01:03:37.624Z,35.72
2023-03-08T01:06:10.597Z,37.67
2023-03-08T01:08:40.108Z,34.33
2023-03-08T01:11:08.957Z,33.20
2023-03-08T01:13:37.595Z,36.38
2023-03-08T01:16:06.041Z,30.42
2023-03-08T01:18:34.367Z,33.60
2023-03-08T01:21:04.719Z,34.88
2023-03-08T01:23:34.326Z,30.88
2023-03-08T01:26:03.926Z,30.73
2023-03-08T01:28:32.939Z,31.30
2023-03-08T01:31:06.360Z,33.20
2023-03-08T01:33:36.246Z,32.25
2023-03-08T01:36:05.808Z,31.15
2023-03-08T01:38:35.719Z,27.35
2023-03-08T01:41:06.177Z,27.95
2023-03-08T01:43:37.319Z,24.80
2023-03-08T01:46:12.114Z,22.92
2023-03-08T01:48:44.737Z,24.08
2023-03-08T01:51:16.423Z,23.58
2023-03-08T01:53:46.430Z,24.58
2023-03-08T01:56:16.544Z,25.27
2023-03-08T01:58:47.115Z,23.15
2023-03-08T02:01:17.744Z,22.88
2023-03-08T02:03:46.749Z,21.83
2023-03-08T02:06:17.380Z,23.05
2023-03-08T02:08:46.960Z,22.27
2023-03-08T02:11:17.431Z,22.23
2023-03-08T02:13:46.181Z,21.20
2023-03-08T02:16:16.698Z,19.92
2023-03-08T02:18:56.470Z,19.48
2023-03-08T02:21:24.851Z,18.38
2023-03-08T02:23:54.961Z,20.90
2023-03-08T02:26:23.857Z,19.02
2023-03-08T02:28:52.001Z,21.60
2023-03-08T02:31:20.137Z,20.88
2023-03-08T02:33:48.761Z,20.83
2023-03-08T02:36:16.910Z,20.27
2023-03-08T02:38:45.069Z,21.75
2023-03-08T02:41:15.035Z,23.10
2023-03-08T02:43:43.362Z,21.20
2023-03-08T02:46:13.065Z,21.23
2023-03-08T02:48:41.525Z,18.75
2023-03-08T02:51:10.331Z,20.60
2023-03-08T02:53:38.571Z,23.38
2023-03-08T02:56:07.527Z,21.60
2023-03-08T02:58:37.105Z,21.35
2023-03-08T03:01:05.274Z,23.25
2023-03-08T03:03:33.817Z,20.58
2023-03-08T03:06:02.055Z,20.17
2023-03-08T03:08:31.333Z,19.27
2023-03-08T03:10:59.993Z,19.65
2023-03-08T03:13:28.169Z,20.10
2023-03-08T03:15:58.051Z,22.23
2023-03-08T03:18:26.682Z,21.25
2023-03-08T03:20:54.918Z,24.70
2023-03-08T03:23:23.084Z,24.65
2023-03-08T03:25:51.221Z,23.15
2023-03-08T03:28:19.987Z,23.23
2023-03-08T03:30:49.060Z,23.58
2023-03-08T03:33:18.658Z,24.90
2023-03-08T03:35:47.363Z,22.65
2023-03-08T03:38:15.685Z,24.35
2023-03-08T03:40:43.832Z,19.05
2023-03-08T03:43:12.391Z,18.92
2023-03-08T03:45:40.537Z,19.52
2023-03-08T03:48:08.811Z,20.83
2023-03-08T03:50:38.711Z,20.17
2023-03-08T03:53:06.852Z,18.95
2023-03-08T03:55:34.981Z,21.77
2023-03-08T03:58:03.604Z,19.65
2023-03-08T04:00:31.846Z,19.55
2023-03-08T04:03:00.053Z,19.45
2023-03-08T04:05:28.676Z,17.55
2023-03-08T04:07:58.423Z,17.48
2023-03-08T04:10:26.616Z,19.02
2023-03-08T04:12:55.103Z,17.88
2023-03-08T04:15:23.516Z,15.25
2023-03-08T04:17:52.725Z,16.80
2023-03-08T04:20:21.344Z,18.95
2023-03-08T04:22:49.922Z,18.48
2023-03-08T04:25:19.671Z,17.55
2023-03-08T04:27:48.022Z,18.23
2023-03-08T04:30:16.630Z,17.77
2023-03-08T04:32:44.925Z,17.17
2023-03-08T04:35:13.131Z,18.15
2023-03-08T04:37:41.527Z,16.67
2023-03-08T04:40:11.179Z,17.00
2023-03-08T04:42:41.200Z,15.05
2023-03-08T04:45:10.412Z,18.10
2023-03-08T04:47:38.662Z,17.60
2023-03-08T04:50:08.412Z,15.52
2023-03-08T04:52:36.666Z,15.95
2023-03-08T04:55:05.461Z,16.58
2023-03-08T04:57:35.408Z,16.65
2023-03-08T05:00:06.071Z,14.75
2023-03-08T05:02:34.582Z,19.02
2023-03-08T05:05:04.798Z,16.83
2023-03-08T05:07:33.102Z,16.95
2023-03-08T05:10:01.242Z,15.05
2023-03-08T05:12:29.565Z,16.80
2023-03-08T05:14:57.970Z,15.82
2023-03-08T05:17:27.579Z,15.50
2023-03-08T05:19:56.065Z,17.33
2023-03-08T05:22:24.672Z,18.90
2023-03-08T05:24:52.867Z,16.55
2023-03-08T05:27:21.104Z,16.95
2023-03-08T05:29:49.363Z,15.35
2023-03-08T05:32:17.816Z,15.25
2023-03-08T05:34:47.518Z,15.82
2023-03-08T05:37:15.778Z,15.65
2023-03-08T05:39:44.028Z,15.38
2023-03-08T05:42:13.081Z,15.57
2023-03-08T05:44:41.378Z,16.70
2023-03-08T05:47:09.709Z,16.42
2023-03-08T05:49:37.887Z,15.15
2023-03-08T05:52:07.802Z,17.88
2023-03-08T05:54:36.095Z,16.33
2023-03-08T05:57:04.508Z,17.88
2023-03-08T05:59:32.861Z,18.25
2023-03-08T06:02:01.301Z,17.65
2023-03-08T06:04:29.651Z,18.67
2023-03-08T06:06:58.187Z,17.13
2023-03-08T06:09:28.027Z,18.42
2023-03-08T06:11:57.047Z,20.17
2023-03-08T06:14:25.417Z,23.23
2023-03-08T06:16:53.614Z,19.77
2023-03-08T06:19:21.860Z,21.85
2023-03-08T06:21:50.011Z,18.17
2023-03-08T06:24:18.191Z,20.02
2023-03-08T06:26:47.897Z,41.67
2023-03-08T06:29:16.033Z,27.25
2023-03-08T06:31:47.537Z,25.25
2023-03-08T06:34:15.880Z,19.88
2023-03-08T06:36:44.102Z,17.88
2023-03-08T06:39:12.412Z,18.98
2023-03-08T06:41:41.146Z,18.38
2023-03-08T06:44:10.735Z,17.08
2023-03-08T06:46:39.148Z,18.80
2023-03-08T06:49:07.931Z,18.63
2023-03-08T06:51:36.144Z,18.30
2023-03-08T06:54:04.612Z,19.40
2023-03-08T06:56:32.827Z,18.15
2023-03-08T06:59:01.112Z,19.33
2023-03-08T07:01:31.155Z,19.27
2023-03-08T07:04:00.207Z,18.00
2023-03-08T07:06:28.465Z,17.20
2023-03-08T07:08:56.821Z,16.50
2023-03-08T07:11:26.892Z,18.35
2023-03-08T07:13:55.097Z,17.40
2023-03-08T07:16:23.784Z,19.70
2023-03-08T07:18:53.670Z,17.52
2023-03-08T07:21:22.138Z,18.63
2023-03-08T07:23:53.058Z,17.73
2023-03-08T07:26:21.286Z,17.17
2023-03-08T07:28:52.692Z,18.38
2023-03-08T07:31:20.838Z,18.90
2023-03-08T07:33:49.000Z,18.30
2023-03-08T07:36:19.086Z,18.55
2023-03-08T07:38:47.296Z,16.98
2023-03-08T07:41:15.466Z,17.35
2023-03-08T07:43:43.788Z,17.20
2023-03-08T07:46:11.947Z,17.10
2023-03-08T07:48:40.117Z,16.92
2023-03-08T07:51:10.487Z,15.75
2023-03-08T07:53:40.071Z,16.45
2023-03-08T07:56:10.429Z,16.63
2023-03-08T07:58:39.658Z,15.57
2023-03-08T08:01:10.618Z,16.05
2023-03-08T08:03:39.640Z,16.52
2023-03-08T08:06:08.565Z,16.73
2023-03-08T08:08:36.734Z,15.32
2023-03-08T08:11:12.713Z,17.60
2023-03-08T08:13:40.998Z,16.15
2023-03-08T08:16:09.599Z,14.80
2023-03-08T08:18:38.067Z,15.10
2023-03-08T08:21:08.849Z,16.02
2023-03-08T08:23:38.172Z,15.25
2023-03-08T08:26:08.954Z,17.30
2023-03-08T08:28:38.752Z,15.80
2023-03-08T08:31:09.386Z,14.93
2023-03-08T08:33:38.092Z,13.73
2023-03-08T08:36:08.430Z,14.20
2023-03-08T08:38:37.235Z,14.65
2023-03-08T08:41:09.205Z,13.15
2023-03-08T08:43:38.403Z,13.15
2023-03-08T08:46:07.159Z,11.85
2023-03-08T08:48:36.661Z,11.27
2023-03-08T08:51:06.022Z,11.07
2023-03-08T08:53:34.526Z,11.25
2023-03-08T08:56:25.577Z,10.50
2023-03-08T08:58:55.895Z,11.27
2023-03-08T09:01:26.519Z,10.43
2023-03-08T09:03:55.115Z,11.20
2023-03-08T09:06:25.147Z,10.75
2023-03-08T09:08:55.243Z,11.70
2023-03-08T09:11:26.458Z,9.70
2023-03-08T09:13:56.992Z,10.07
2023-03-08T09:16:27.246Z,10.00
2023-03-08T09:18:56.429Z,11.68
2023-03-08T09:21:25.349Z,9.70
2023-03-08T09:23:53.826Z,9.80
2023-03-08T09:26:22.402Z,11.50
2023-03-08T09:28:51.989Z,9.40
2023-03-08T09:31:20.167Z,9.38
2023-03-08T09:33:52.012Z,11.85
2023-03-08T09:36:20.984Z,10.05
2023-03-08T09:38:50.720Z,9.13
2023-03-08T09:41:38.088Z,9.55
2023-03-08T09:44:17.334Z,9.48
2023-03-08T09:46:49.903Z,9.20
2023-03-08T09:49:22.938Z,10.60
2023-03-08T09:51:59.379Z,10.13
2023-03-08T09:54:28.993Z,9.48
2023-03-08T09:56:57.423Z,9.27
2023-03-08T09:59:32.892Z,9.27
2023-03-08T10:02:11.845Z,9.90
2023-03-08T10:05:09.800Z,9.02
2023-03-08T10:07:50.872Z,9.18
2023-03-08T10:10:27.769Z,9.40
2023-03-08T10:13:06.481Z,8.35
2023-03-08T10:15:41.762Z,8.55
2023-03-08T10:18:16.658Z,8.93
2023-03-08T10:20:46.092Z,9.20
2023-03-08T10:23:20.881Z,8.00
2023-03-08T10:25:50.747Z,8.68
2023-03-08T10:28:21.019Z,8.63
2023-03-08T10:30:53.113Z,8.23
2023-03-08T10:33:24.215Z,8.68
2023-03-08T10:35:57.788Z,8.18
2023-03-08T10:41:02.492Z,9.32
2023-03-08T10:43:33.506Z,10.48
2023-03-08T10:46:06.244Z,9.52
2023-03-08T10:48:34.636Z,9.20
2023-03-08T10:51:05.044Z,8.82
2023-03-08T10:53:34.514Z,9.10
2023-03-08T10:56:03.133Z,9.07
2023-03-08T10:58:35.024Z,9.30
2023-03-08T11:01:07.130Z,8.68
2023-03-08T11:03:35.670Z,9.80
2023-03-08T11:06:06.094Z,10.38
2023-03-08T11:08:36.050Z,11.77
2023-03-08T11:11:07.503Z,9.43
2023-03-08T11:13:38.310Z,13.40
2023-03-08T11:16:29.050Z,10.90
2023-03-08T11:19:04.512Z,10.95
2023-03-08T11:21:44.845Z,10.75
2023-03-08T11:24:23.851Z,13.02
2023-03-08T11:27:03.178Z,10.77
2023-03-08T11:29:43.183Z,12.30
2023-03-08T11:32:29.403Z,11.48
2023-03-08T11:35:16.537Z,12.40
2023-03-08T11:37:50.077Z,11.60
2023-03-08T11:40:25.230Z,13.40
2023-03-08T11:43:09.196Z,12.45
2023-03-08T11:48:27.063Z,13.52
2023-03-08T11:50:59.607Z,11.27
2023-03-08T11:53:39.396Z,12.88
2023-03-08T11:56:36.252Z,12.95
2023-03-08T11:59:08.012Z,12.27
2023-03-08T12:01:42.696Z,13.18
2023-03-08T12:04:18.055Z,13.23
2023-03-08T12:06:48.502Z,13.38
2023-03-08T12:09:24.425Z,12.60
2023-03-08T12:12:00.885Z,13.93
2023-03-08T12:14:33.318Z,13.90
2023-03-08T12:17:08.828Z,15.00
2023-03-08T12:19:44.140Z,16.15
2023-03-08T12:22:25.232Z,17.48
2023-03-08T12:25:01.515Z,18.50
2023-03-08T12:27:36.537Z,16.70
2023-03-08T12:30:14.959Z,19.15
2023-03-08T12:32:44.952Z,19.05
2023-03-08T12:35:31.289Z,19.33
2023-03-08T12:38:02.771Z,18.10
2023-03-08T12:40:42.251Z,18.30
2023-03-08T12:43:13.637Z,17.95
2023-03-08T12:45:43.216Z,18.63
2023-03-08T12:48:21.580Z,20.80
2023-03-08T12:51:03.693Z,19.33
2023-03-08T12:53:38.869Z,20.05
2023-03-08T12:56:24.313Z,18.67
2023-03-08T12:58:55.974Z,20.35
2023-03-08T13:01:31.175Z,22.17
2023-03-08T13:04:00.261Z,20.38
2023-03-08T13:06:55.132Z,21.40
2023-03-08T13:09:28.495Z,21.83
2023-03-08T13:12:03.016Z,21.58
2023-03-08T13:14:41.401Z,22.90
2023-03-08T13:17:35.683Z,20.98
2023-03-08T13:20:12.886Z,24.02
2023-03-08T13:22:51.462Z,23.83
2023-03-08T13:25:33.373Z,25.73
2023-03-08T13:28:07.223Z,25.45
2023-03-08T13:30:37.818Z,27.80
2023-03-08T13:33:10.106Z,27.63
2023-03-08T13:35:38.758Z,27.02
2023-03-08T13:38:08.484Z,29.65
2023-03-08T13:40:36.726Z,27.55
2023-03-08T13:43:08.741Z,28.73
2023-03-08T13:45:37.250Z,26.05
2023-03-08T13:48:10.772Z,29.67
2023-03-08T13:50:44.137Z,29.65
2023-03-08T13:53:22.882Z,27.45
2023-03-08T13:55:54.568Z,27.90
2023-03-08T13:58:32.213Z,28.23
2023-03-08T14:01:11.052Z,28.65
2023-03-08T14:03:40.726Z,28.73
2023-03-08T14:06:19.710Z,29.80
2023-03-08T14:08:50.373Z,30.40
2023-03-08T14:11:22.900Z,28.60
2023-03-08T14:13:54.250Z,30.00
2023-03-08T14:16:31.097Z,32.33
2023-03-08T14:19:00.490Z,36.03
2023-03-08T14:21:30.456Z,35.65
2023-03-08T14:24:01.731Z,34.22
2023-03-08T14:26:33.869Z,34.40
2023-03-08T14:29:19.422Z,36.90
2023-03-08T14:32:06.360Z,36.33
2023-03-08T14:34:36.567Z,36.03
2023-03-08T14:37:07.797Z,35.17
2023-03-08T14:39:40.575Z,34.90
2023-03-08T14:42:22.316Z,36.05
2023-03-08T14:44:53.897Z,35.47
2023-03-08T14:47:24.861Z,36.53
2023-03-08T14:49:57.983Z,32.88
2023-03-08T14:52:29.102Z,34.50
2023-03-08T14:54:58.896Z,34.75
2023-03-08T14:57:29.326Z,38.33
2023-03-08T15:00:08.204Z,37.30
2023-03-08T15:02:37.721Z,37.13
2023-03-08T15:05:09.365Z,34.83
2023-03-08T15:07:38.470Z,35.17
2023-03-08T15:10:13.809Z,33.95
2023-03-08T15:12:42.581Z,34.90
2023-03-08T15:15:15.116Z,37.67
2023-03-08T15:17:43.935Z,36.58
2023-03-08T15:20:14.415Z,36.85
2023-03-08T15:22:46.642Z,36.92
2023-03-08T15:25:19.246Z,37.67
2023-03-08T15:27:49.730Z,35.15
2023-03-08T15:30:19.622Z,38.30
2023-03-08T15:32:48.231Z,38.08
2023-03-08T15:35:17.005Z,35.72
2023-03-08T15:37:45.704Z,39.22
2023-03-08T15:40:18.696Z,36.30
2023-03-08T15:42:46.932Z,35.28
2023-03-08T15:45:16.418Z,34.35
2023-03-08T15:47:45.604Z,37.85
2023-03-08T15:50:17.005Z,35.50
2023-03-08T15:52:45.720Z,39.03
2023-03-08T15:55:15.377Z,38.22
2023-03-08T15:57:44.996Z,36.92
2023-03-08T16:00:15.801Z,36.60
2023-03-08T16:02:44.507Z,36.33
2023-03-08T16:05:14.288Z,34.70
2023-03-08T16:07:43.117Z,35.25
2023-03-08T16:10:15.622Z,38.10
2023-03-08T16:12:45.240Z,39.20
2023-03-08T16:15:13.564Z,38.05
2023-03-08T16:17:41.846Z,39.92
2023-03-08T16:20:11.405Z,37.60
2023-03-08T16:22:39.856Z,39.00
2023-03-08T16:25:09.466Z,36.80
2023-03-08T16:27:38.345Z,38.20
2023-03-08T16:30:10.234Z,36.13
2023-03-08T16:32:38.446Z,36.78
2023-03-08T16:35:07.657Z,36.78
2023-03-08T16:37:36.145Z,39.95
2023-03-08T16:40:07.288Z,42.60
2023-03-08T16:42:35.795Z,41.08
2023-03-08T16:45:05.012Z,39.83
2023-03-08T16:47:34.714Z,41.47
2023-03-08T16:50:04.162Z,41.55
2023-03-08T16:52:32.570Z,39.83
2023-03-08T16:55:00.807Z,40.90
2023-03-08T16:57:29.292Z,41.70
2023-03-08T16:59:57.910Z,41.78
2023-03-08T17:02:26.166Z,40.78
2023-03-08T17:04:56.528Z,40.75
2023-03-08T17:07:26.203Z,44.40
2023-03-08T17:09:55.407Z,43.15
2023-03-08T17:12:23.930Z,43.72
2023-03-08T17:14:52.518Z,46.00
2023-03-08T17:17:20.743Z,42.42
2023-03-08T17:19:52.845Z,42.47
2023-03-08T17:22:22.553Z,43.83
2023-03-08T17:24:50.674Z,43.65
2023-03-08T17:27:18.881Z,46.08
2023-03-08T17:29:47.261Z,46.03
2023-03-08T17:32:15.448Z,47.40
2023-03-08T17:34:43.665Z,48.53
2023-03-08T17:37:12.352Z,49.95
2023-03-08T17:39:42.333Z,54.15
2023-03-08T17:42:11.405Z,52.60
2023-03-08T17:44:39.704Z,56.88
2023-03-08T17:47:08.041Z,53.15
2023-03-08T17:49:36.228Z,59.42
2023-03-08T17:52:04.609Z,57.38
2023-03-08T17:54:32.825Z,56.95
2023-03-08T17:57:05.529Z,57.05
2023-03-08T17:59:33.719Z,55.60
2023-03-08T18:02:02.097Z,59.92
2023-03-08T18:04:30.907Z,60.63
2023-03-08T18:06:59.202Z,62.58
2023-03-08T18:09:29.782Z,58.78
2023-03-08T18:11:58.201Z,60.35
2023-03-08T18:14:39.199Z,63.47
2023-03-08T18:17:08.509Z,61.65
2023-03-08T18:19:36.989Z,62.97
2023-03-08T18:22:05.705Z,62.35
2023-03-08T18:24:34.240Z,57.97
2023-03-08T18:27:05.381Z,63.05
2023-03-08T18:29:36.665Z,59.65
2023-03-08T18:32:06.307Z,58.00
2023-03-08T18:34:35.319Z,58.08
2023-03-08T18:37:03.924Z,61.50
2023-03-08T18:39:32.101Z,62.08
2023-03-08T18:42:01.373Z,55.45
2023-03-08T18:44:29.802Z,61.53
2023-03-08T18:47:00.454Z,58.40
2023-03-08T18:49:28.833Z,55.17
2023-03-08T18:51:58.290Z,55.83
2023-03-08T18:54:26.772Z,54.83
2023-03-08T18:56:57.097Z,55.50
2023-03-08T18:59:28.238Z,54.67
2023-03-08T19:01:57.310Z,54.55
2023-03-08T19:04:27.258Z,55.38
2023-03-08T19:06:55.713Z,58.03
2023-03-08T19:09:24.373Z,53.45
2023-03-08T19:11:52.657Z,51.30
2023-03-08T19:14:21.151Z,54.70
2023-03-08T19:16:49.458Z,52.78
2023-03-08T19:19:18.254Z,58.85
2023-03-08T19:21:49.761Z,50.75
2023-03-08T19:24:20.923Z,56.60
2023-03-08T19:26:51.424Z,52.05
2023-03-08T19:29:21.859Z,56.03
2023-03-08T19:31:52.723Z,55.83
2023-03-08T19:34:23.896Z,58.17
2023-03-08T19:36:54.018Z,56.47
2023-03-08T19:39:23.989Z,59.00
2023-03-08T19:41:53.724Z,56.38
2023-03-08T19:44:23.914Z,62.25
2023-03-08T19:46:52.413Z,68.03
2023-03-08T19:49:22.683Z,77.07
2023-03-08T19:51:55.291Z,64.72
2023-03-08T19:54:25.079Z,67.32
2023-03-08T19:56:54.256Z,67.82
2023-03-08T19:59:23.099Z,63.40
2023-03-08T20:01:51.874Z,60.95
2023-03-08T20:04:20.781Z,62.60
2023-03-08T20:06:50.956Z,60.53
2023-03-08T20:09:22.853Z,61.40
2023-03-08T20:11:53.908Z,61.95
2023-03-08T20:14:23.967Z,65.93
2023-03-08T20:16:52.643Z,59.88
2023-03-08T20:19:21.033Z,62.40
2023-03-08T20:21:49.780Z,64.25
2023-03-08T20:24:19.248Z,66.00
2023-03-08T20:26:49.060Z,63.92
2023-03-08T20:29:17.888Z,65.95
2023-03-08T20:31:48.262Z,66.18
2023-03-08T20:34:16.983Z,68.53
2023-03-08T20:36:45.449Z,67.85
2023-03-08T20:39:13.676Z,68.50
2023-03-08T20:41:41.920Z,62.92
2023-03-08T20:44:13.081Z,70.38
2023-03-08T20:46:41.385Z,64.63
2023-03-08T20:49:11.229Z,66.80
2023-03-08T20:51:39.525Z,69.53
2023-03-08T20:54:07.973Z,70.57
2023-03-08T20:56:36.197Z,70.95
2023-03-08T20:59:05.342Z,76.93
2023-03-08T21:01:35.254Z,72.82
2023-03-08T21:04:03.590Z,70.28
2023-03-08T21:06:32.988Z,73.25
2023-03-08T21:09:01.697Z,71.00
2023-03-08T21:11:30.473Z,65.72
2023-03-08T21:13:59.133Z,73.05
2023-03-08T21:16:28.798Z,67.10
2023-03-08T21:19:00.861Z,74.82
2023-03-08T21:21:33.524Z,67.72
2023-03-08T21:24:04.702Z,70.90
2023-03-08T21:26:33.523Z,64.70
2023-03-08T21:29:03.685Z,62.83
2023-03-08T21:31:33.455Z,67.40
2023-03-08T21:34:05.075Z,66.80
2023-03-08T21:36:33.394Z,60.17
2023-03-08T21:39:02.112Z,59.97
2023-03-08T21:41:31.820Z,57.72
2023-03-08T21:44:00.456Z,54.78
2023-03-08T21:46:29.021Z,61.55
2023-03-08T21:48:57.893Z,56.85
2023-03-08T21:51:27.512Z,63.22
2023-03-08T21:53:57.745Z,57.83
2023-03-08T21:56:26.040Z,52.38
2023-03-08T21:58:54.487Z,52.00
2023-03-08T22:01:24.874Z,59.83
2023-03-08T22:03:54.651Z,57.05
2023-03-08T22:06:22.891Z,54.63
2023-03-08T22:08:52.921Z,54.13
2023-03-08T22:11:22.515Z,49.35
2023-03-08T22:13:51.895Z,48.47
2023-03-08T22:16:23.121Z,47.88
2023-03-08T22:18:53.836Z,45.97
2023-03-08T22:21:22.601Z,47.72
2023-03-08T22:23:53.061Z,44.83
2023-03-08T22:26:21.935Z,45.10
2023-03-08T22:28:50.432Z,42.85
2023-03-08T22:31:22.245Z,39.10
2023-03-08T22:33:50.680Z,41.65
2023-03-08T22:36:20.518Z,38.85
2023-03-08T22:38:49.352Z,38.75
2023-03-08T22:41:21.186Z,36.25
2023-03-08T22:43:51.110Z,41.42
2023-03-08T22:46:21.487Z,35.03
2023-03-08T22:48:51.510Z,38.38
2023-03-08T22:51:21.910Z,36.40
2023-03-08T22:53:50.689Z,35.42
2023-03-08T22:56:23.151Z,35.08
2023-03-08T22:58:51.799Z,34.97
2023-03-08T23:01:22.491Z,32.28
2023-03-08T23:03:51.457Z,33.97
2023-03-08T23:06:20.206Z,29.55
2023-03-08T23:08:48.980Z,32.28
2023-03-08T23:11:17.509Z,35.70
2023-03-08T23:13:47.232Z,28.95
2023-03-08T23:16:17.266Z,32.38
2023-03-08T23:18:49.025Z,34.28
2023-03-08T23:21:19.010Z,34.38
2023-03-08T23:23:48.146Z,32.00
2023-03-08T23:26:21.276Z,36.63
2023-03-08T23:28:51.127Z,37.95
2023-03-08T23:31:22.427Z,38.00
2023-03-08T23:33:51.640Z,35.15
2023-03-08T23:36:23.990Z,36.83
2023-03-08T23:38:53.358Z,38.80
2023-03-08T23:41:21.923Z,40.85
2023-03-08T23:43:55.400Z,39.42
2023-03-08T23:46:23.714Z,40.13
2023-03-08T23:48:55.307Z,42.58
2023-03-08T23:51:25.200Z,42.28
2023-03-08T23:53:56.205Z,40.92
2023-03-08T23:56:30.239Z,42.67
2023-03-08T23:59:02.509Z,38.67
